Date,TemperatureHighF,TemperatureAvgF,TemperatureLowF,DewpointHighF,DewpointAvgF,DewpointLowF,HumidityHigh,HumidityAvg,HumidityLow,PressureMaxIn,PressureMinIn,WindSpeedMaxMPH,WindSpeedAvgMPH,GustSpeedMaxMPH,PrecipitationSumIn
2013-2-1,68,54,44,52,43,36,87,66,51,30.32,30.20,8,1,11,0.00
2013-2-2,72,57,44,56,49,40,89,77,56,30.29,30.14,5,0,9,0.00
2013-2-3,71,58,49,53,49,42,90,75,41,30.20,30.07,3,0,11,0.00
2013-2-4,71,56,44,52,45,37,89,68,32,30.14,30.02,5,0,12,0.00
2013-2-5,78,60,46,57,50,41,88,72,43,30.11,30.01,3,0,8,0.00
2013-2-6,77,66,55,66,60,52,92,81,65,30.12,30.02,4,0,11,0.00
2013-2-7,79,70,59,68,63,56,92,79,62,30.08,29.92,8,1,14,0.00
2013-2-8,82,69,60,65,62,57,92,79,45,30.06,29.88,5,1,15,0.00
2013-2-9,75,66,57,63,60,55,92,81,67,30.19,30.05,7,1,12,0.00
2013-2-10,75,69,65,62,60,58,79,72,61,30.28,30.17,13,2,17,0.00
2013-2-11,81,71,62,66,63,58,91,76,53,30.23,30.09,10,2,14,0.00
2013-2-12,85,72,61,69,65,58,92,78,51,30.12,29.95,10,1,12,0.00
2013-2-13,86,75,67,72,67,60,92,78,53,29.98,29.84,10,3,18,0.00
2013-2-14,73,65,60,67,61,58,92,87,77,30.04,29.93,4,1,9,0.79
2013-2-15,64,61,58,61,58,56,93,92,89,30.06,29.96,7,0,10,0.05
2013-2-16,69,60,49,58,51,37,93,73,46,30.08,29.89,13,4,23,0.00
2013-2-17,56,46,39,38,29,21,80,51,30,30.34,30.09,9,2,17,0.00
2013-2-18,67,54,39,52,42,28,85,64,52,30.34,30.24,6,1,14,0.00
2013-2-19,78,65,50,61,56,47,92,74,50,30.22,30.07,5,1,11,0.01
2013-2-20,75,65,56,65,60,53,92,84,71,30.13,30.02,3,0,7,0.00
2013-2-21,79,69,58,69,63,56,92,82,59,30.11,30.02,8,1,11,0.00
2013-2-22,81,72,62,72,67,59,92,85,73,30.10,30.00,8,2,13,0.00
2013-2-23,87,75,66,72,67,64,92,79,51,30.03,29.88,9,1,16,0.23
2013-2-24,85,73,68,71,68,65,92,84,56,29.98,29.89,8,2,12,0.00
2013-2-25,85,75,67,73,69,65,92,83,58,29.92,29.79,7,1,13,0.01
2013-2-26,84,76,69,73,69,66,92,80,61,29.86,29.76,10,3,22,0.01
2013-2-27,79,68,61,65,62,58,92,81,57,29.96,29.87,6,1,11,0.00
2013-2-28,74,63,54,57,51,47,88,68,38,30.01,29.88,7,1,11,0.00